createdAt,value
2022-08-29T00:04:26.167Z,69.42
2022-08-29T00:14:29.162Z,70.58
2022-08-29T00:24:33.283Z,71.21
2022-08-29T00:34:36.012Z,71.48
2022-08-29T00:44:40.216Z,72.90
2022-08-29T00:54:45.979Z,73.24
2022-08-29T01:04:50.011Z,74.18
2022-08-29T01:14:56.335Z,74.61
2022-08-29T01:25:04.239Z,75.69
2022-08-29T01:35:08.590Z,76.12
2022-08-29T01:45:13.193Z,76.79
2022-08-29T01:55:15.885Z,77.22
2022-08-29T02:05:22.972Z,78.38
2022-08-29T02:15:25.859Z,79.13
2022-08-29T02:25:47.457Z,79.06
2022-08-29T02:35:50.518Z,79.19
2022-08-29T02:45:54.765Z,79.91
2022-08-29T02:55:57.844Z,80.26
2022-08-29T03:06:01.879Z,81.08
2022-08-29T03:16:05.350Z,80.88
2022-08-29T03:26:09.488Z,81.49
2022-08-29T03:36:14.205Z,81.75
2022-08-29T03:46:18.890Z,82.62
2022-08-29T03:56:21.670Z,82.17
2022-08-29T04:06:28.138Z,82.57
2022-08-29T04:16:31.312Z,82.84
2022-08-29T04:26:37.489Z,83.51
2022-08-29T04:36:42.759Z,83.20
2022-08-29T04:46:46.884Z,83.74
2022-08-29T04:56:49.680Z,83.61
2022-08-29T05:06:55.554Z,83.88
2022-08-29T05:16:58.257Z,84.04
2022-08-29T05:27:02.314Z,84.13
2022-08-29T05:37:07.714Z,84.40
2022-08-29T05:47:14.166Z,84.29
2022-08-29T05:57:21.036Z,83.97
2022-08-29T06:07:25.082Z,83.98
2022-08-29T06:17:28.398Z,83.70
2022-08-29T06:27:32.778Z,84.07
2022-08-29T06:37:35.452Z,83.95
2022-08-29T06:47:39.516Z,83.81
2022-08-29T06:57:45.321Z,83.52
2022-08-29T07:07:50.045Z,82.42
2022-08-29T07:17:55.493Z,79.72
2022-08-29T07:28:03.579Z,77.34
2022-08-29T07:38:07.129Z,77.57
2022-08-29T07:48:11.212Z,76.74
2022-08-29T07:58:14.173Z,78.95
2022-08-29T08:08:18.526Z,79.01
2022-08-29T08:18:21.354Z,79.01
2022-08-29T08:28:25.502Z,78.75
2022-08-29T08:38:28.216Z,76.82
2022-08-29T08:48:38.045Z,74.32
2022-08-29T08:58:49.961Z,73.46
2022-08-29T09:09:01.700Z,70.61
2022-08-29T09:19:07.000Z,71.17
2022-08-29T09:29:13.768Z,70.25
2022-08-29T09:39:20.938Z,70.88
2022-08-29T09:49:25.024Z,70.03
2022-08-29T09:59:30.976Z,66.08
2022-08-29T10:09:37.301Z,64.57
2022-08-29T10:19:40.203Z,65.19
2022-08-29T10:29:59.395Z,67.00
2022-08-29T10:40:10.636Z,65.02
2022-08-29T10:50:46.159Z,64.19
2022-08-29T11:00:55.229Z,61.03
2022-08-29T11:10:59.370Z,59.22
2022-08-29T11:21:13.176Z,57.31
2022-08-29T11:31:22.881Z,52.83
2022-08-29T11:41:29.977Z,49.26
2022-08-29T11:51:40.326Z,44.77
2022-08-29T12:02:02.093Z,50.17
2022-08-29T12:12:35.991Z,55.33
2022-08-29T12:22:54.918Z,47.41
2022-08-29T12:33:09.023Z,49.60
2022-08-29T12:43:32.068Z,39.85
2022-08-29T12:53:36.831Z,41.95
2022-08-29T13:03:40.912Z,48.19
2022-08-29T13:13:43.616Z,50.63
2022-08-29T13:24:01.538Z,50.41
2022-08-29T13:34:17.563Z,49.81
2022-08-29T13:44:24.659Z,53.00
2022-08-29T13:54:31.041Z,52.35
2022-08-29T14:04:38.853Z,54.09
2022-08-29T14:14:43.623Z,55.67
2022-08-29T14:24:51.783Z,55.42
2022-08-29T14:34:54.530Z,55.38
2022-08-29T14:44:58.927Z,54.28
2022-08-29T14:55:01.953Z,53.23
2022-08-29T15:05:06.979Z,53.14
2022-08-29T15:15:10.624Z,53.59
2022-08-29T15:25:14.739Z,53.00
2022-08-29T15:35:17.698Z,54.06
2022-08-29T15:45:22.792Z,54.40
2022-08-29T15:55:25.744Z,54.93
2022-08-29T16:05:30.326Z,56.16
2022-08-29T16:15:33.937Z,56.57
2022-08-29T16:25:38.430Z,58.00
2022-08-29T16:35:41.095Z,58.83
2022-08-29T16:45:45.279Z,59.09
2022-08-29T16:55:48.201Z,59.02
2022-08-29T17:05:52.393Z,59.61
2022-08-29T17:15:54.532Z,60.73
2022-08-29T17:26:01.374Z,60.62
2022-08-29T17:36:06.620Z,60.18
2022-08-29T17:46:11.250Z,61.09
2022-08-29T17:56:15.984Z,62.08
2022-08-29T18:06:21.363Z,62.81
2022-08-29T18:16:24.421Z,63.92
2022-08-29T18:26:29.231Z,64.77
2022-08-29T18:36:33.294Z,67.07
2022-08-29T18:46:40.836Z,68.52
2022-08-29T18:56:43.563Z,69.16
2022-08-29T19:06:47.864Z,70.32
2022-08-29T19:16:50.698Z,70.96
2022-08-29T19:26:54.882Z,72.14
2022-08-29T19:36:57.669Z,72.95
2022-08-29T19:47:01.712Z,73.25
2022-08-29T19:57:04.996Z,73.80
2022-08-29T20:07:09.302Z,74.55
2022-08-29T20:17:12.635Z,74.96
2022-08-29T20:27:16.923Z,75.23
2022-08-29T20:37:22.697Z,75.68
2022-08-29T20:47:27.176Z,76.31
2022-08-29T20:57:29.844Z,76.97
2022-08-29T21:07:34.158Z,77.40
2022-08-29T21:17:36.910Z,77.74
2022-08-29T21:27:41.009Z,78.24
2022-08-29T21:37:44.015Z,78.47
2022-08-29T21:47:50.490Z,78.56
2022-08-29T21:57:52.141Z,78.64
2022-08-29T22:07:56.847Z,79.23
2022-08-29T22:18:00.724Z,78.94
2022-08-29T22:28:04.974Z,79.26
2022-08-29T22:38:07.669Z,79.62
2022-08-29T22:48:13.230Z,79.87
2022-08-29T22:58:17.489Z,80.24
2022-08-29T23:08:22.045Z,80.60
2022-08-29T23:18:24.760Z,80.89
2022-08-29T23:28:28.809Z,81.04
2022-08-29T23:38:31.511Z,81.43
2022-08-29T23:48:35.681Z,81.30
2022-08-29T23:58:38.381Z,81.51
